createdAt,value
2022-09-06T00:00:04.911Z,0.00
2022-09-06T00:01:04.940Z,0.00
2022-09-06T00:02:04.938Z,0.00
2022-09-06T00:03:04.989Z,0.00
2022-09-06T00:04:04.906Z,0.00
2022-09-06T00:05:04.888Z,0.00
2022-09-06T00:06:04.899Z,0.00
2022-09-06T00:07:04.841Z,0.00
2022-09-06T00:08:04.811Z,0.00
2022-09-06T00:09:04.832Z,0.00
2022-09-06T00:10:04.800Z,0.00
2022-09-06T00:11:04.842Z,0.00
2022-09-06T00:12:04.790Z,0.00
2022-09-06T00:13:04.780Z,0.00
2022-09-06T00:14:04.750Z,0.00
2022-09-06T00:15:04.750Z,0.00
2022-09-06T00:16:04.799Z,0.00
2022-09-06T00:17:04.724Z,0.00
2022-09-06T00:18:04.680Z,0.00
2022-09-06T00:19:04.692Z,0.00
2022-09-06T00:20:04.700Z,0.00
2022-09-06T00:21:04.677Z,0.00
2022-09-06T00:22:04.662Z,0.00
2022-09-06T00:23:04.648Z,0.00
2022-09-06T00:24:04.610Z,0.00
2022-09-06T00:25:04.628Z,0.00
2022-09-06T00:26:04.589Z,0.00
2022-09-06T00:27:04.619Z,0.00
2022-09-06T00:28:04.573Z,0.00
2022-09-06T00:29:04.547Z,0.00
2022-09-06T00:30:04.529Z,0.00
2022-09-06T00:31:04.589Z,0.00
2022-09-06T00:32:04.515Z,0.00
2022-09-06T00:33:04.485Z,0.00
2022-09-06T00:34:04.474Z,0.00
2022-09-06T00:35:04.456Z,0.00
2022-09-06T00:36:04.447Z,0.00
2022-09-06T00:37:04.429Z,0.00
2022-09-06T00:38:04.448Z,0.00
2022-09-06T00:39:04.408Z,0.00
2022-09-06T00:40:04.502Z,0.00
2022-09-06T00:41:04.386Z,0.00
2022-09-06T00:42:04.377Z,0.00
2022-09-06T00:43:04.367Z,0.00
2022-09-06T00:44:04.347Z,0.00
2022-09-06T00:45:04.327Z,0.00
2022-09-06T00:46:04.362Z,0.00
2022-09-06T00:47:04.309Z,0.00
2022-09-06T00:48:04.317Z,0.00
2022-09-06T00:49:04.288Z,0.00
2022-09-06T00:50:04.280Z,0.00
2022-09-06T00:51:04.270Z,0.00
2022-09-06T00:52:04.251Z,0.00
2022-09-06T00:53:04.227Z,0.00
2022-09-06T00:54:04.239Z,0.00
2022-09-06T00:55:04.222Z,0.00
2022-09-06T00:56:04.189Z,0.00
2022-09-06T00:57:04.179Z,0.00
2022-09-06T00:58:04.167Z,0.00
2022-09-06T00:59:04.156Z,0.00
2022-09-06T01:00:04.148Z,0.00
2022-09-06T01:01:04.128Z,0.00
2022-09-06T01:02:04.245Z,0.00
2022-09-06T01:03:04.097Z,0.00
2022-09-06T01:04:04.112Z,0.00
2022-09-06T01:05:04.075Z,0.00
2022-09-06T01:06:04.066Z,0.00
2022-09-06T01:07:04.048Z,0.00
2022-09-06T01:08:04.050Z,0.00
2022-09-06T01:09:04.105Z,0.00
2022-09-06T01:10:04.008Z,0.00
2022-09-06T01:11:03.996Z,0.00
2022-09-06T01:12:03.988Z,0.00
2022-09-06T01:13:03.967Z,0.00
2022-09-06T01:14:03.985Z,0.00
2022-09-06T01:15:03.961Z,0.00
2022-09-06T01:16:03.951Z,0.00
2022-09-06T01:17:03.920Z,0.00
2022-09-06T01:18:03.915Z,0.00
2022-09-06T01:19:03.913Z,0.00
2022-09-06T01:20:03.899Z,0.00
2022-09-06T01:21:03.871Z,0.00
2022-09-06T01:22:03.870Z,0.00
2022-09-06T01:23:03.846Z,0.00
2022-09-06T01:24:03.857Z,0.00
2022-09-06T01:25:03.816Z,0.00
2022-09-06T01:26:03.816Z,0.00
2022-09-06T01:27:03.794Z,0.00
2022-09-06T01:28:03.784Z,0.00
2022-09-06T01:29:03.783Z,0.00
2022-09-06T01:30:03.754Z,0.00
2022-09-06T01:31:03.832Z,0.00
2022-09-06T01:32:03.742Z,0.00
2022-09-06T01:33:03.714Z,0.00
2022-09-06T01:34:03.713Z,0.00
2022-09-06T01:35:03.685Z,0.00
2022-09-06T01:36:03.675Z,0.00
2022-09-06T01:37:10.453Z,0.00
2022-09-06T01:38:04.667Z,0.00
2022-09-06T01:39:03.643Z,0.00
2022-09-06T01:40:03.695Z,0.00
2022-09-06T01:41:03.613Z,0.00
2022-09-06T01:42:03.613Z,0.00
2022-09-06T01:43:05.997Z,0.00
2022-09-06T01:44:03.597Z,0.00
2022-09-06T01:45:03.565Z,0.00
2022-09-06T01:46:03.581Z,0.00
2022-09-06T01:47:03.534Z,0.00
2022-09-06T01:48:03.522Z,0.00
2022-09-06T01:49:03.516Z,0.00
2022-09-06T01:50:03.505Z,0.00
2022-09-06T01:51:03.473Z,0.00
2022-09-06T01:52:03.472Z,0.00
2022-09-06T01:53:03.474Z,0.00
2022-09-06T01:54:03.461Z,0.00
2022-09-06T01:55:03.442Z,0.00
2022-09-06T01:56:03.424Z,0.00
2022-09-06T01:57:03.402Z,0.00
2022-09-06T01:58:03.392Z,0.00
2022-09-06T01:59:03.525Z,0.00
2022-09-06T02:00:03.374Z,0.00
2022-09-06T02:01:03.415Z,0.00
2022-09-06T02:02:03.375Z,0.00
2022-09-06T02:03:03.332Z,0.00
2022-09-06T02:04:03.336Z,0.00
2022-09-06T02:05:03.302Z,0.00
2022-09-06T02:06:03.290Z,0.00
2022-09-06T02:07:03.279Z,0.00
2022-09-06T02:08:03.283Z,0.00
2022-09-06T02:09:03.260Z,0.00
2022-09-06T02:10:03.243Z,0.00
2022-09-06T02:11:03.233Z,0.00
2022-09-06T02:12:03.212Z,0.00
2022-09-06T02:13:03.193Z,0.00
2022-09-06T02:14:03.193Z,0.00
2022-09-06T02:15:03.170Z,0.00
2022-09-06T02:16:03.173Z,0.00
2022-09-06T02:17:03.175Z,0.00
2022-09-06T02:18:03.134Z,0.00
2022-09-06T02:19:03.130Z,0.00
2022-09-06T02:20:03.111Z,0.00
2022-09-06T02:21:03.091Z,0.00
2022-09-06T02:22:03.095Z,0.00
2022-09-06T02:23:03.070Z,0.00
2022-09-06T02:24:03.070Z,0.00
2022-09-06T02:25:03.050Z,0.00
2022-09-06T02:26:03.031Z,0.00
2022-09-06T02:27:03.023Z,0.00
2022-09-06T02:28:03.018Z,0.00
2022-09-06T02:29:03.001Z,0.00
2022-09-06T02:30:02.997Z,0.00
2022-09-06T02:31:02.992Z,0.00
2022-09-06T02:32:02.950Z,0.00
2022-09-06T02:33:02.941Z,0.00
2022-09-06T02:34:02.942Z,0.00
2022-09-06T02:35:02.921Z,0.00
2022-09-06T02:36:02.900Z,0.00
2022-09-06T02:37:02.898Z,0.00
2022-09-06T02:38:02.871Z,0.00
2022-09-06T02:39:02.880Z,0.00
2022-09-06T02:40:02.913Z,0.00
2022-09-06T02:41:02.839Z,0.00
2022-09-06T02:42:02.831Z,0.00
2022-09-06T02:43:02.812Z,0.00
2022-09-06T02:44:02.792Z,0.00
2022-09-06T02:45:02.796Z,0.00
2022-09-06T02:46:02.807Z,0.00
2022-09-06T02:47:02.860Z,0.00
2022-09-06T02:48:02.750Z,0.00
2022-09-06T02:49:02.738Z,0.00
2022-09-06T02:50:02.734Z,0.00
2022-09-06T02:51:02.720Z,0.00
2022-09-06T02:52:02.702Z,0.00
2022-09-06T02:53:02.699Z,0.00
2022-09-06T02:54:02.669Z,0.00
2022-09-06T02:55:02.650Z,0.00
2022-09-06T02:56:02.646Z,0.00
2022-09-06T02:57:02.632Z,0.00
2022-09-06T02:58:02.633Z,0.00
2022-09-06T02:59:02.607Z,0.00
2022-09-06T03:00:02.588Z,0.00
2022-09-06T03:01:02.599Z,0.00
2022-09-06T03:02:02.598Z,0.00
2022-09-06T03:03:02.628Z,0.00
2022-09-06T03:04:02.538Z,0.00
2022-09-06T03:05:02.521Z,0.00
2022-09-06T03:06:02.517Z,0.00
2022-09-06T03:07:02.497Z,0.00
2022-09-06T03:08:02.499Z,0.00
2022-09-06T03:09:02.491Z,0.00
2022-09-06T03:10:02.474Z,0.00
2022-09-06T03:11:02.450Z,0.00
2022-09-06T03:12:02.437Z,0.00
2022-09-06T03:13:02.418Z,0.00
2022-09-06T03:14:02.438Z,0.00
2022-09-06T03:15:02.397Z,0.00
2022-09-06T03:16:02.386Z,0.00
2022-09-06T03:17:02.410Z,0.00
2022-09-06T03:18:02.387Z,0.00
2022-09-06T03:19:02.364Z,0.00
2022-09-06T03:20:02.355Z,0.00
2022-09-06T03:21:02.326Z,0.00
2022-09-06T03:22:02.317Z,0.00
2022-09-06T03:23:02.286Z,0.00
2022-09-06T03:24:02.286Z,0.00
2022-09-06T03:25:02.284Z,0.00
2022-09-06T03:26:02.265Z,0.00
2022-09-06T03:27:02.239Z,0.00
2022-09-06T03:28:02.234Z,0.00
2022-09-06T03:29:02.218Z,0.00
2022-09-06T03:30:02.204Z,0.00
2022-09-06T03:31:02.266Z,0.00
2022-09-06T03:32:02.197Z,0.00
2022-09-06T03:33:03.035Z,0.00
2022-09-06T03:34:02.155Z,0.00
2022-09-06T03:35:02.145Z,0.00
2022-09-06T03:36:02.125Z,0.00
2022-09-06T03:37:02.204Z,0.00
2022-09-06T03:38:02.105Z,0.00
2022-09-06T03:39:02.096Z,0.00
2022-09-06T03:40:02.129Z,0.00
2022-09-06T03:41:02.066Z,0.00
2022-09-06T03:42:02.076Z,0.00
2022-09-06T03:43:02.045Z,0.00
2022-09-06T03:44:02.024Z,0.00
2022-09-06T03:45:02.007Z,0.00
2022-09-06T03:46:02.067Z,0.00
2022-09-06T03:47:01.984Z,0.00
2022-09-06T03:48:01.994Z,0.00
2022-09-06T03:49:01.959Z,0.00
2022-09-06T03:50:01.953Z,0.00
2022-09-06T03:51:01.938Z,0.00
2022-09-06T03:52:01.936Z,0.00
2022-09-06T03:53:01.913Z,0.00
2022-09-06T03:54:01.915Z,0.00
2022-09-06T03:55:01.884Z,0.00
2022-09-06T03:56:01.877Z,0.00
2022-09-06T03:57:01.857Z,0.00
2022-09-06T03:58:01.843Z,0.00
2022-09-06T03:59:01.844Z,0.00
2022-09-06T04:00:01.823Z,0.00
2022-09-06T04:01:01.914Z,0.00
2022-09-06T04:02:01.827Z,0.00
2022-09-06T04:03:02.081Z,0.00
2022-09-06T04:04:01.775Z,0.00
2022-09-06T04:05:01.854Z,0.00
2022-09-06T04:06:01.733Z,0.00
2022-09-06T04:07:01.727Z,0.00
2022-09-06T04:08:01.734Z,0.00
2022-09-06T04:09:01.705Z,0.00
2022-09-06T04:10:01.703Z,0.00
2022-09-06T04:11:01.682Z,0.00
2022-09-06T04:12:01.668Z,0.00
2022-09-06T04:13:01.653Z,0.00
2022-09-06T04:14:01.643Z,0.00
2022-09-06T04:15:01.624Z,0.00
2022-09-06T04:16:01.635Z,0.00
2022-09-06T04:17:01.641Z,0.00
2022-09-06T04:18:04.923Z,0.00
2022-09-06T04:19:02.575Z,0.00
2022-09-06T04:20:01.566Z,0.00
2022-09-06T04:21:01.545Z,0.00
2022-09-06T04:22:01.562Z,0.00
2022-09-06T04:23:01.514Z,0.00
2022-09-06T04:24:01.509Z,0.00
2022-09-06T04:25:01.492Z,0.00
2022-09-06T04:26:01.482Z,0.00
2022-09-06T04:27:01.473Z,0.00
2022-09-06T04:28:01.469Z,0.00
2022-09-06T04:29:01.444Z,0.00
2022-09-06T04:30:01.431Z,0.00
2022-09-06T04:31:04.706Z,0.00
2022-09-06T04:32:01.482Z,0.00
2022-09-06T04:33:01.420Z,0.00
2022-09-06T04:34:01.387Z,0.00
2022-09-06T04:35:01.371Z,0.00
2022-09-06T04:36:01.368Z,0.00
2022-09-06T04:37:01.341Z,0.00
2022-09-06T04:38:01.339Z,0.00
2022-09-06T04:39:01.340Z,0.00
2022-09-06T04:40:01.354Z,0.00
2022-09-06T04:41:01.291Z,4.00
2022-09-06T04:42:01.273Z,4.00
2022-09-06T04:43:01.271Z,0.00
2022-09-06T04:44:01.249Z,0.00
2022-09-06T04:45:01.250Z,4.00
2022-09-06T04:46:01.300Z,4.00
2022-09-06T04:47:01.211Z,4.00
2022-09-06T04:48:01.200Z,4.00
2022-09-06T04:49:01.201Z,4.00
2022-09-06T04:50:01.191Z,4.00
2022-09-06T04:51:01.170Z,4.00
2022-09-06T04:52:01.150Z,8.00
2022-09-06T04:53:01.140Z,8.00
2022-09-06T04:54:01.119Z,4.00
2022-09-06T04:55:01.110Z,8.00
2022-09-06T04:56:01.104Z,8.00
2022-09-06T04:57:01.091Z,12.00
2022-09-06T04:58:01.070Z,8.00
2022-09-06T04:59:01.061Z,12.00
2022-09-06T05:00:01.040Z,12.00
2022-09-06T05:01:01.117Z,16.00
2022-09-06T05:02:01.078Z,12.00
2022-09-06T05:03:01.009Z,16.00
2022-09-06T05:04:00.991Z,16.00
2022-09-06T05:05:00.979Z,16.00
2022-09-06T05:06:00.960Z,16.00
2022-09-06T05:07:00.980Z,20.00
2022-09-06T05:08:00.938Z,20.00
2022-09-06T05:09:00.929Z,16.00
2022-09-06T05:10:00.912Z,20.00
2022-09-06T05:11:00.899Z,20.00
2022-09-06T05:12:00.909Z,28.00
2022-09-06T05:13:00.873Z,32.00
2022-09-06T05:14:00.858Z,32.00
2022-09-06T05:15:00.861Z,36.00
2022-09-06T05:16:00.864Z,40.00
2022-09-06T05:17:00.828Z,44.00
2022-09-06T05:18:00.828Z,44.00
2022-09-06T05:19:00.801Z,48.00
2022-09-06T05:20:00.806Z,48.00
2022-09-06T05:21:00.768Z,48.00
2022-09-06T05:22:00.769Z,48.00
2022-09-06T05:23:00.747Z,52.00
2022-09-06T05:24:00.797Z,56.00
2022-09-06T05:25:00.726Z,56.00
2022-09-06T05:26:00.708Z,64.00
2022-09-06T05:27:00.944Z,68.00
2022-09-06T05:28:00.678Z,68.00
2022-09-06T05:29:00.691Z,72.00
2022-09-06T05:30:00.678Z,80.00
2022-09-06T05:31:00.640Z,80.00
2022-09-06T05:32:00.680Z,88.00
2022-09-06T05:33:00.615Z,96.00
2022-09-06T05:34:00.620Z,96.00
2022-09-06T05:35:00.610Z,104.00
2022-09-06T05:36:00.587Z,108.00
2022-09-06T05:37:00.573Z,112.00
2022-09-06T05:38:00.569Z,116.00
2022-09-06T05:39:00.559Z,120.00
2022-09-06T05:40:00.610Z,120.00
2022-09-06T05:41:00.566Z,124.00
2022-09-06T05:42:00.506Z,124.00
2022-09-06T05:43:00.492Z,128.00
2022-09-06T05:44:00.477Z,132.00
2022-09-06T05:45:00.457Z,140.00
2022-09-06T05:46:00.575Z,144.00
2022-09-06T05:47:00.464Z,148.00
2022-09-06T05:48:00.435Z,152.00
2022-09-06T05:49:00.420Z,156.00
2022-09-06T05:50:00.407Z,160.00
2022-09-06T05:51:00.385Z,160.00
2022-09-06T05:52:00.383Z,164.00
2022-09-06T05:53:00.376Z,168.00
2022-09-06T05:54:00.349Z,168.00
2022-09-06T05:55:00.327Z,176.00
2022-09-06T05:56:00.328Z,176.00
2022-09-06T05:57:00.306Z,180.00
2022-09-06T05:58:00.311Z,188.00
2022-09-06T05:59:00.306Z,188.00
2022-09-06T06:00:00.277Z,192.00
2022-09-06T06:01:00.281Z,188.00
2022-09-06T06:02:03.210Z,192.00
2022-09-06T06:03:01.235Z,196.00
2022-09-06T06:04:00.225Z,196.00
2022-09-06T06:05:00.216Z,196.00
2022-09-06T06:06:00.193Z,192.00
2022-09-06T06:07:00.178Z,188.00
2022-09-06T06:08:00.165Z,188.00
2022-09-06T06:09:00.295Z,188.00
2022-09-06T06:10:00.167Z,188.00
2022-09-06T06:11:00.148Z,184.00
2022-09-06T06:12:00.115Z,180.00
2022-09-06T06:13:00.103Z,180.00
2022-09-06T06:14:00.110Z,184.00
2022-09-06T06:15:00.089Z,184.00
2022-09-06T06:16:00.113Z,184.00
2022-09-06T06:17:00.110Z,188.00
2022-09-06T06:18:00.044Z,188.00
2022-09-06T06:19:00.024Z,192.00
2022-09-06T06:20:00.016Z,196.00
2022-09-06T06:20:59.995Z,200.00
2022-09-06T06:21:59.995Z,200.00
2022-09-06T06:22:59.974Z,204.00
2022-09-06T06:23:59.964Z,212.00
2022-09-06T06:24:59.946Z,220.00
2022-09-06T06:25:59.934Z,220.00
2022-09-06T06:26:59.936Z,224.00
2022-09-06T06:27:59.924Z,252.00
2022-09-06T06:28:59.893Z,260.00
2022-09-06T06:29:59.885Z,288.00
2022-09-06T06:30:59.863Z,300.00
2022-09-06T06:31:59.893Z,308.00
2022-09-06T06:32:59.863Z,324.00
2022-09-06T06:33:59.831Z,344.00
2022-09-06T06:34:59.814Z,360.00
2022-09-06T06:35:59.821Z,372.00
2022-09-06T06:36:59.795Z,388.00
2022-09-06T06:37:59.794Z,404.00
2022-09-06T06:38:59.780Z,428.00
2022-09-06T06:39:59.778Z,456.00
2022-09-06T06:41:03.301Z,492.00
2022-09-06T06:42:00.735Z,528.00
2022-09-06T06:42:59.720Z,568.00
2022-09-06T06:43:59.704Z,608.00
2022-09-06T06:44:59.701Z,640.00
2022-09-06T06:45:59.755Z,668.00
2022-09-06T06:46:59.668Z,692.00
2022-09-06T06:47:59.660Z,712.00
2022-09-06T06:48:59.636Z,728.00
2022-09-06T06:49:59.642Z,744.00
2022-09-06T06:50:59.610Z,752.00
2022-09-06T06:51:59.594Z,764.00
2022-09-06T06:52:59.592Z,772.00
2022-09-06T06:53:59.583Z,776.00
2022-09-06T06:54:59.559Z,780.00
2022-09-06T06:55:59.561Z,788.00
2022-09-06T06:56:59.530Z,792.00
2022-09-06T06:57:59.531Z,800.00
2022-09-06T06:58:59.515Z,808.00
2022-09-06T06:59:59.496Z,808.00
2022-09-06T07:00:59.542Z,812.00
2022-09-06T07:01:59.733Z,820.00
2022-09-06T07:02:59.471Z,828.00
2022-09-06T07:03:59.448Z,840.00
2022-09-06T07:04:59.496Z,852.00
2022-09-06T07:06:14.619Z,868.00
2022-09-06T07:08:00.400Z,900.00
2022-09-06T07:08:59.380Z,908.00
2022-09-06T07:11:00.361Z,928.00
2022-09-06T07:11:59.339Z,940.00
2022-09-06T07:12:59.339Z,952.00
2022-09-06T07:13:59.320Z,968.00
2022-09-06T07:14:59.308Z,984.00
2022-09-06T07:15:59.328Z,996.00
2022-09-06T07:16:59.280Z,1008.00
2022-09-06T07:17:59.477Z,1020.00
2022-09-06T07:18:59.250Z,1028.00
2022-09-06T07:20:15.126Z,1036.00
2022-09-06T07:22:04.403Z,1048.00
2022-09-06T07:24:08.224Z,1060.00
2022-09-06T07:25:00.178Z,1068.00
2022-09-06T07:25:59.169Z,1076.00
2022-09-06T07:28:03.930Z,1096.00
2022-09-06T07:29:00.138Z,1104.00
2022-09-06T07:29:59.108Z,1116.00
2022-09-06T07:30:59.123Z,1128.00
2022-09-06T07:32:14.412Z,1140.00
2022-09-06T07:33:00.059Z,1152.00
2022-09-06T07:33:59.059Z,1160.00
2022-09-06T07:34:59.058Z,1176.00
2022-09-06T07:35:59.055Z,1184.00
2022-09-06T07:36:59.009Z,1192.00
2022-09-06T07:37:59.009Z,1204.00
2022-09-06T07:38:58.989Z,1216.00
2022-09-06T07:39:59.013Z,1236.00
2022-09-06T07:40:59.039Z,1244.00
2022-09-06T07:41:58.948Z,1252.00
2022-09-06T07:42:58.941Z,1272.00
2022-09-06T07:43:58.939Z,1284.00
2022-09-06T07:44:58.918Z,1296.00
2022-09-06T07:45:58.931Z,1308.00
2022-09-06T07:48:00.003Z,1328.00
2022-09-06T07:48:58.867Z,1344.00
2022-09-06T07:50:59.858Z,1368.00
2022-09-06T07:51:59.000Z,1372.00
2022-09-06T07:54:26.123Z,1396.00
2022-09-06T07:54:59.787Z,1404.00
2022-09-06T07:55:58.781Z,1420.00
2022-09-06T07:56:58.768Z,1428.00
2022-09-06T07:57:58.756Z,1440.00
2022-09-06T07:58:58.741Z,1448.00
2022-09-06T07:59:58.717Z,1460.00
2022-09-06T08:00:58.735Z,1464.00
2022-09-06T08:01:58.754Z,1472.00
2022-09-06T08:02:58.693Z,1476.00
2022-09-06T08:03:58.668Z,1484.00
2022-09-06T08:04:58.666Z,1492.00
2022-09-06T08:06:13.974Z,1500.00
2022-09-06T08:08:59.812Z,1524.00
2022-09-06T08:09:58.605Z,1532.00
2022-09-06T08:10:58.586Z,1544.00
2022-09-06T08:11:58.577Z,1556.00
2022-09-06T08:12:58.555Z,1564.00
2022-09-06T08:13:58.553Z,1572.00
2022-09-06T08:14:58.536Z,1576.00
2022-09-06T08:15:58.577Z,1588.00
2022-09-06T08:16:58.510Z,1592.00
2022-09-06T08:17:58.551Z,1600.00
2022-09-06T08:18:58.477Z,1612.00
2022-09-06T08:19:58.475Z,1620.00
2022-09-06T08:20:58.465Z,1624.00
2022-09-06T08:21:58.455Z,1632.00
2022-09-06T08:22:58.427Z,1644.00
2022-09-06T08:23:58.417Z,1648.00
2022-09-06T08:24:58.407Z,1656.00
2022-09-06T08:25:58.407Z,1664.00
2022-09-06T08:26:58.387Z,1672.00
2022-09-06T08:27:58.376Z,1676.00
2022-09-06T08:28:58.346Z,1684.00
2022-09-06T08:29:58.356Z,1696.00
2022-09-06T08:30:58.326Z,1708.00
2022-09-06T08:31:58.382Z,1716.00
2022-09-06T08:32:58.309Z,1720.00
2022-09-06T08:33:58.307Z,1732.00
2022-09-06T08:34:58.286Z,1744.00
2022-09-06T08:35:58.273Z,1752.00
2022-09-06T08:36:58.253Z,1764.00
2022-09-06T08:37:58.248Z,1768.00
2022-09-06T08:38:58.227Z,1780.00
2022-09-06T08:39:58.256Z,1792.00
2022-09-06T08:40:58.207Z,1800.00
2022-09-06T08:41:58.186Z,1816.00
2022-09-06T08:42:58.186Z,1820.00
2022-09-06T08:44:59.157Z,1832.00
2022-09-06T08:45:58.144Z,1848.00
2022-09-06T08:46:58.160Z,1856.00
2022-09-06T08:47:58.126Z,1872.00
2022-09-06T08:48:58.107Z,1884.00
2022-09-06T08:49:58.098Z,1892.00
2022-09-06T08:50:58.086Z,1900.00
2022-09-06T08:51:58.065Z,1912.00
2022-09-06T08:53:59.059Z,1936.00
2022-09-06T08:54:58.016Z,1944.00
2022-09-06T08:55:58.027Z,1960.00
2022-09-06T08:56:57.996Z,1972.00
2022-09-06T08:57:57.986Z,1984.00
2022-09-06T08:58:57.967Z,1992.00
2022-09-06T08:59:57.975Z,2012.00
2022-09-06T09:00:57.966Z,2016.00
2022-09-06T09:01:57.990Z,2028.00
2022-09-06T09:02:57.915Z,2036.00
2022-09-06T09:03:57.908Z,2044.00
2022-09-06T09:04:57.915Z,2064.00
2022-09-06T09:05:57.885Z,2084.00
2022-09-06T09:06:57.868Z,2092.00
2022-09-06T09:07:57.858Z,2108.00
2022-09-06T09:08:57.838Z,2124.00
2022-09-06T09:09:57.835Z,2132.00
2022-09-06T09:10:57.814Z,2144.00
2022-09-06T09:11:57.797Z,2160.00
2022-09-06T09:12:57.799Z,2172.00
2022-09-06T09:13:57.785Z,2188.00
2022-09-06T09:14:57.774Z,2196.00
2022-09-06T09:15:57.806Z,2208.00
2022-09-06T09:16:57.737Z,2220.00
2022-09-06T09:17:57.725Z,2232.00
2022-09-06T09:18:57.720Z,2244.00
2022-09-06T09:19:57.716Z,2256.00
2022-09-06T09:20:57.685Z,2276.00
2022-09-06T09:21:57.670Z,2284.00
2022-09-06T09:22:57.656Z,2296.00
2022-09-06T09:23:57.645Z,2308.00
2022-09-06T09:24:57.645Z,2316.00
2022-09-06T09:25:57.625Z,2332.00
2022-09-06T09:26:57.605Z,2348.00
2022-09-06T09:27:57.656Z,2356.00
2022-09-06T09:28:57.577Z,2368.00
2022-09-06T09:30:58.581Z,2396.00
2022-09-06T09:31:57.597Z,2412.00
2022-09-06T09:32:57.535Z,2420.00
2022-09-06T09:33:57.525Z,2424.00
2022-09-06T09:34:57.524Z,2440.00
2022-09-06T09:35:57.507Z,2452.00
2022-09-06T09:38:04.896Z,2468.00
2022-09-06T09:38:58.456Z,2484.00
2022-09-06T09:39:57.532Z,2492.00
2022-09-06T09:40:57.438Z,2504.00
2022-09-06T09:41:57.425Z,2516.00
2022-09-06T09:42:57.415Z,2524.00
2022-09-06T09:44:00.098Z,2536.00
2022-09-06T09:44:58.395Z,2544.00
2022-09-06T09:45:57.376Z,2560.00
2022-09-06T09:46:57.375Z,2568.00
2022-09-06T09:47:57.346Z,2580.00
2022-09-06T09:48:57.337Z,2584.00
2022-09-06T09:49:57.336Z,2600.00
2022-09-06T09:50:57.307Z,2608.00
2022-09-06T09:51:57.306Z,2612.00
2022-09-06T09:52:57.286Z,2624.00
2022-09-06T09:53:57.273Z,2628.00
2022-09-06T09:54:57.268Z,2640.00
2022-09-06T09:55:57.249Z,2648.00
2022-09-06T09:56:57.234Z,2652.00
2022-09-06T09:57:57.229Z,2664.00
2022-09-06T09:58:57.206Z,2668.00
2022-09-06T09:59:57.218Z,2676.00
2022-09-06T10:00:57.203Z,2684.00
2022-09-06T10:01:57.183Z,2684.00
2022-09-06T10:02:57.204Z,2692.00
2022-09-06T10:04:58.146Z,2696.00
2022-09-06T10:06:03.116Z,2708.00
2022-09-06T10:07:13.368Z,2704.00
2022-09-06T10:07:58.140Z,2712.00
2022-09-06T10:08:57.156Z,2716.00
2022-09-06T10:09:57.164Z,2724.00
2022-09-06T10:10:57.057Z,2724.00
2022-09-06T10:11:57.047Z,2732.00
2022-09-06T10:12:57.040Z,2732.00
2022-09-06T10:13:57.027Z,2732.00
2022-09-06T10:14:57.028Z,2732.00
2022-09-06T10:15:57.027Z,2740.00
2022-09-06T10:16:56.989Z,2740.00
2022-09-06T10:17:57.027Z,2736.00
2022-09-06T10:18:56.956Z,2740.00
2022-09-06T10:19:56.967Z,2744.00
2022-09-06T10:20:56.936Z,2744.00
2022-09-06T10:21:56.932Z,2752.00
2022-09-06T10:22:56.916Z,2744.00
2022-09-06T10:24:57.906Z,2752.00
2022-09-06T10:25:56.875Z,2752.00
2022-09-06T10:26:56.871Z,2752.00
2022-09-06T10:28:12.268Z,2756.00
2022-09-06T10:28:57.837Z,2752.00
2022-09-06T10:29:56.847Z,2752.00
2022-09-06T10:30:56.854Z,2752.00
2022-09-06T10:31:56.817Z,2752.00
2022-09-06T10:32:56.793Z,2748.00
2022-09-06T10:33:56.776Z,2752.00
2022-09-06T10:34:56.776Z,2760.00
2022-09-06T10:35:56.747Z,2740.00
2022-09-06T10:36:56.750Z,2744.00
2022-09-06T10:37:56.738Z,2740.00
2022-09-06T10:39:00.363Z,2744.00
2022-09-06T10:39:57.770Z,2744.00
2022-09-06T10:40:56.697Z,2740.00
2022-09-06T10:41:56.687Z,2740.00
2022-09-06T10:42:56.677Z,2740.00
2022-09-06T10:43:56.649Z,2736.00
2022-09-06T10:44:56.659Z,2732.00
2022-09-06T10:45:56.637Z,2728.00
2022-09-06T10:46:56.636Z,2728.00
2022-09-06T10:47:56.597Z,2732.00
2022-09-06T10:48:56.591Z,2728.00
2022-09-06T10:49:56.587Z,2724.00
2022-09-06T10:50:56.558Z,2720.00
2022-09-06T10:51:56.566Z,2720.00
2022-09-06T10:52:56.538Z,2716.00
2022-09-06T10:53:56.536Z,2716.00
2022-09-06T10:54:56.528Z,2708.00
2022-09-06T10:55:59.769Z,2704.00
2022-09-06T10:56:57.487Z,2704.00
2022-09-06T10:59:57.512Z,2704.00
2022-09-06T11:00:56.439Z,2700.00
2022-09-06T11:01:56.509Z,2700.00
2022-09-06T11:04:00.304Z,2684.00
2022-09-06T11:05:57.388Z,2672.00
2022-09-06T11:06:56.367Z,2672.00
2022-09-06T11:08:58.280Z,2668.00
2022-09-06T11:09:56.338Z,2668.00
2022-09-06T11:10:56.318Z,2668.00
2022-09-06T11:11:56.308Z,2656.00
2022-09-06T11:12:56.299Z,2652.00
2022-09-06T11:13:56.287Z,2656.00
2022-09-06T11:14:56.278Z,2652.00
2022-09-06T11:15:56.321Z,2652.00
2022-09-06T11:16:56.238Z,2648.00
2022-09-06T11:17:56.235Z,2644.00
2022-09-06T11:18:56.218Z,2636.00
2022-09-06T11:19:56.219Z,2636.00
2022-09-06T11:20:56.196Z,2632.00
2022-09-06T11:21:56.178Z,2624.00
2022-09-06T11:22:56.168Z,2620.00
2022-09-06T11:23:56.159Z,2624.00
2022-09-06T11:24:56.158Z,2616.00
2022-09-06T11:25:56.139Z,2612.00
2022-09-06T11:26:56.118Z,2608.00
2022-09-06T11:27:58.093Z,2608.00
2022-09-06T11:28:56.100Z,2608.00
2022-09-06T11:29:56.099Z,2600.00
2022-09-06T11:30:56.140Z,2552.00
2022-09-06T11:32:57.051Z,2544.00
2022-09-06T11:33:59.490Z,2544.00
2022-09-06T11:34:57.039Z,2540.00
2022-09-06T11:35:56.010Z,2532.00
2022-09-06T11:36:56.000Z,2524.00
2022-09-06T11:37:56.000Z,2520.00
2022-09-06T11:38:55.989Z,2512.00
2022-09-06T11:40:56.948Z,2500.00
2022-09-06T11:41:55.939Z,2496.00
2022-09-06T11:42:55.930Z,2496.00
2022-09-06T11:43:55.927Z,2492.00
2022-09-06T11:44:55.926Z,2484.00
2022-09-06T11:45:55.913Z,2476.00
2022-09-06T11:46:55.932Z,2464.00
2022-09-06T11:47:55.870Z,2468.00
2022-09-06T11:48:55.858Z,2460.00
2022-09-06T11:49:55.848Z,2428.00
2022-09-06T11:50:55.830Z,2428.00
2022-09-06T11:51:55.810Z,2432.00
2022-09-06T11:52:55.800Z,2428.00
2022-09-06T11:53:55.829Z,2408.00
2022-09-06T11:54:55.799Z,2404.00
2022-09-06T11:55:55.769Z,2392.00
2022-09-06T11:56:55.765Z,2392.00
2022-09-06T11:57:55.740Z,2376.00
2022-09-06T11:58:55.739Z,2372.00
2022-09-06T11:59:55.729Z,2360.00
2022-09-06T12:00:55.720Z,2352.00
2022-09-06T12:01:55.710Z,2348.00
2022-09-06T12:04:04.880Z,2344.00
2022-09-06T12:04:59.681Z,2348.00
2022-09-06T12:05:55.651Z,2324.00
2022-09-06T12:06:55.652Z,2316.00
2022-09-06T12:07:55.630Z,2320.00
2022-09-06T12:08:55.630Z,2312.00
2022-09-06T12:09:55.620Z,2292.00
2022-09-06T12:10:55.607Z,1656.00
2022-09-06T12:11:55.592Z,2256.00
2022-09-06T12:12:55.569Z,2252.00
2022-09-06T12:13:55.568Z,2248.00
2022-09-06T12:14:55.567Z,2296.00
2022-09-06T12:15:55.594Z,2276.00
2022-09-06T12:16:55.520Z,2292.00
2022-09-06T12:17:55.516Z,2284.00
2022-09-06T12:18:55.511Z,2260.00
2022-09-06T12:19:55.504Z,2256.00
2022-09-06T12:20:55.493Z,2248.00
2022-09-06T12:21:55.474Z,2220.00
2022-09-06T12:22:55.460Z,2212.00
2022-09-06T12:23:55.441Z,2212.00
2022-09-06T12:24:55.441Z,2212.00
2022-09-06T12:25:55.431Z,2208.00
2022-09-06T12:26:56.101Z,2216.00
2022-09-06T12:27:55.405Z,2188.00
2022-09-06T12:28:55.391Z,2160.00
2022-09-06T12:29:55.391Z,2152.00
2022-09-06T12:30:55.410Z,2108.00
2022-09-06T12:31:55.355Z,2128.00
2022-09-06T12:32:55.349Z,2144.00
2022-09-06T12:33:55.334Z,2152.00
2022-09-06T12:35:56.603Z,2068.00
2022-09-06T12:36:55.291Z,2088.00
2022-09-06T12:37:55.282Z,2108.00
2022-09-06T12:38:55.271Z,2112.00
2022-09-06T12:39:55.332Z,2116.00
2022-09-06T12:40:55.260Z,2120.00
2022-09-06T12:41:55.232Z,2112.00
2022-09-06T12:42:55.250Z,2096.00
2022-09-06T12:43:55.211Z,2060.00
2022-09-06T12:44:55.226Z,2020.00
2022-09-06T12:45:55.191Z,2080.00
2022-09-06T12:46:55.181Z,2088.00
2022-09-06T12:47:55.165Z,2076.00
2022-09-06T12:48:55.152Z,2064.00
2022-09-06T12:49:55.183Z,2060.00
2022-09-06T12:50:55.132Z,2052.00
2022-09-06T12:51:55.114Z,2040.00
2022-09-06T12:52:55.113Z,2032.00
2022-09-06T12:53:55.104Z,2020.00
2022-09-06T12:54:55.103Z,2012.00
2022-09-06T12:55:55.074Z,2020.00
2022-09-06T12:56:55.062Z,2020.00
2022-09-06T12:57:55.125Z,2032.00
2022-09-06T12:58:55.044Z,2044.00
2022-09-06T12:59:55.046Z,2016.00
2022-09-06T13:00:55.023Z,2036.00
2022-09-06T13:01:55.089Z,2028.00
2022-09-06T13:02:55.071Z,2060.00